createdAt,value
2018-09-19T00:00:22.050Z,95156.22
2018-09-19T00:02:50.591Z,95151.48
2018-09-19T00:05:19.050Z,95147.11
2018-09-19T00:07:47.480Z,95158.48
2018-09-19T00:10:15.962Z,95158.64
2018-09-19T00:12:44.387Z,95148.49
2018-09-19T00:15:12.874Z,95152.19
2018-09-19T00:17:41.325Z,95149.64
2018-09-19T00:20:09.792Z,95153.16
2018-09-19T00:22:38.223Z,95158.75
2018-09-19T00:25:06.639Z,95149.31
2018-09-19T00:27:35.192Z,95148.55
2018-09-19T00:30:03.623Z,95146.45
2018-09-19T00:32:31.998Z,95152.75
2018-09-19T00:35:00.492Z,95162.94
2018-09-19T00:37:28.949Z,95162.76
2018-09-19T00:39:57.379Z,95162.23
2018-09-19T00:42:25.807Z,95169.08
2018-09-19T00:44:54.341Z,95168.66
2018-09-19T00:47:23.012Z,95173.36
2018-09-19T00:49:51.477Z,95170.58
2018-09-19T00:52:19.884Z,95169.58
2018-09-19T00:54:48.876Z,95175.41
2018-09-19T00:57:17.253Z,95175.83
2018-09-19T00:59:45.736Z,95175.98
2018-09-19T01:02:14.176Z,95174.23
2018-09-19T01:04:42.481Z,95177.45
2018-09-19T01:07:11.005Z,95185.17
2018-09-19T01:09:39.353Z,95188.12
2018-09-19T01:12:07.778Z,95187.13
2018-09-19T01:14:36.220Z,95186.70
2018-09-19T01:17:04.625Z,95190.50
2018-09-19T01:19:33.012Z,95188.75
2018-09-19T01:22:01.435Z,95192.58
2018-09-19T01:24:29.777Z,95198.73
2018-09-19T01:26:58.215Z,95197.83
2018-09-19T01:29:26.699Z,95202.83
2018-09-19T01:31:55.330Z,95201.02
2018-09-19T01:34:23.738Z,95207.94
2018-09-19T01:36:52.307Z,95205.69
2018-09-19T01:39:20.719Z,95208.58
2018-09-19T01:41:49.144Z,95208.80
2018-09-19T01:44:17.523Z,95209.59
2018-09-19T01:46:45.996Z,95207.91
2018-09-19T01:49:14.368Z,95209.25
2018-09-19T01:51:42.831Z,95204.34
2018-09-19T01:54:11.285Z,95208.20
2018-09-19T01:56:39.719Z,95213.63
2018-09-19T01:59:08.021Z,95215.64
2018-09-19T02:01:36.365Z,95217.73
2018-09-19T02:04:04.759Z,95221.85
2018-09-19T02:06:33.151Z,95219.08
2018-09-19T02:09:01.525Z,95219.94
2018-09-19T02:11:29.844Z,95221.16
2018-09-19T02:13:58.241Z,95227.79
2018-09-19T02:16:26.594Z,95229.10
2018-09-19T02:18:54.990Z,95234.67
2018-09-19T02:21:23.362Z,95236.21
2018-09-19T02:23:51.802Z,95234.74
2018-09-19T02:26:20.088Z,95234.30
2018-09-19T02:28:48.488Z,95239.61
2018-09-19T02:31:17.027Z,95239.34
2018-09-19T02:33:45.568Z,95245.83
2018-09-19T02:36:18.740Z,95245.09
2018-09-19T02:38:47.580Z,95246.64
2018-09-19T02:41:16.062Z,95247.61
2018-09-19T02:43:44.538Z,95242.64
2018-09-19T02:46:12.946Z,95245.89
2018-09-19T02:48:41.407Z,95245.12
2018-09-19T02:51:09.795Z,95240.80
2018-09-19T02:53:39.171Z,95241.83
2018-09-19T02:56:07.502Z,95243.25
2018-09-19T02:58:35.762Z,95241.97
2018-09-19T03:01:04.302Z,95247.36
2018-09-19T03:03:32.648Z,95247.59
2018-09-19T03:06:01.084Z,95242.66
2018-09-19T03:08:29.631Z,95236.19
2018-09-19T03:10:57.998Z,95238.36
2018-09-19T03:13:26.400Z,95240.20
2018-09-19T03:15:54.783Z,95248.05
2018-09-19T03:18:23.388Z,95243.78
2018-09-19T03:20:51.808Z,95246.29
2018-09-19T03:23:20.197Z,95239.59
2018-09-19T03:25:48.555Z,95236.87
2018-09-19T03:28:16.993Z,95243.19
2018-09-19T03:30:45.634Z,95246.59
2018-09-19T03:33:14.058Z,95248.83
2018-09-19T03:35:42.464Z,95249.07
2018-09-19T03:38:10.871Z,95246.07
2018-09-19T03:40:39.300Z,95248.30
2018-09-19T03:43:07.727Z,95253.69
2018-09-19T03:45:36.133Z,95249.84
2018-09-19T03:48:04.507Z,95252.04
2018-09-19T03:50:32.952Z,95244.95
2018-09-19T03:53:01.343Z,95246.75
2018-09-19T03:55:29.759Z,95248.26
2018-09-19T03:57:58.144Z,95247.05
2018-09-19T04:00:26.570Z,95238.92
2018-09-19T04:02:54.931Z,95243.88
2018-09-19T04:05:23.343Z,95240.09
2018-09-19T04:07:51.716Z,95248.20
2018-09-19T04:10:20.106Z,95250.66
2018-09-19T04:12:48.574Z,95247.16
2018-09-19T04:15:17.048Z,95239.31
2018-09-19T04:20:51.526Z,95241.45
2018-09-19T04:23:20.516Z,95243.00
2018-09-19T04:25:48.874Z,95240.28
2018-09-19T04:28:17.270Z,95237.25
2018-09-19T04:30:45.548Z,95243.13
2018-09-19T04:33:13.871Z,95245.54
2018-09-19T04:35:42.245Z,95243.80
2018-09-19T04:38:10.573Z,95252.72
2018-09-19T04:40:38.903Z,95258.25
2018-09-19T04:43:19.025Z,95260.40
2018-09-19T04:45:47.326Z,95262.36
2018-09-19T04:48:15.651Z,95266.97
2018-09-19T04:50:44.055Z,95269.64
2018-09-19T04:53:12.415Z,95266.18
2018-09-19T04:55:40.745Z,95268.13
2018-09-19T04:58:09.063Z,95272.78
2018-09-19T05:00:37.548Z,95265.17
2018-09-19T05:03:06.192Z,95266.86
2018-09-19T05:05:34.730Z,95275.18
2018-09-19T05:08:03.004Z,95274.20
2018-09-19T05:10:31.323Z,95282.11
2018-09-19T05:12:59.683Z,95275.52
2018-09-19T05:15:28.181Z,95270.33
2018-09-19T05:17:56.595Z,95268.80
2018-09-19T05:20:25.088Z,95280.88
2018-09-19T05:22:53.891Z,95287.87
2018-09-19T05:25:22.256Z,95289.52
2018-09-19T05:27:50.736Z,95288.57
2018-09-19T05:30:19.284Z,95285.76
2018-09-19T05:32:47.767Z,95289.56
2018-09-19T05:35:16.634Z,95289.98
2018-09-19T05:37:45.007Z,95295.09
2018-09-19T05:40:13.634Z,95294.06
2018-09-19T05:42:42.060Z,95296.13
2018-09-19T05:45:10.540Z,95291.50
2018-09-19T05:47:38.979Z,95296.64
2018-09-19T05:50:07.373Z,95290.16
2018-09-19T05:52:36.028Z,95285.92
2018-09-19T05:55:04.541Z,95299.04
2018-09-19T05:57:32.970Z,95297.34
2018-09-19T06:00:02.611Z,95294.95
2018-09-19T06:02:31.135Z,95295.36
2018-09-19T06:04:59.681Z,95291.00
2018-09-19T06:07:28.858Z,95279.00
2018-09-19T06:09:57.268Z,95278.70
2018-09-19T06:12:25.668Z,95277.42
2018-09-19T06:14:54.109Z,95280.70
2018-09-19T06:17:22.549Z,95278.98
2018-09-19T06:19:51.150Z,95276.22
2018-09-19T06:22:19.550Z,95284.80
2018-09-19T06:24:48.003Z,95277.47
2018-09-19T06:27:16.433Z,95284.87
2018-09-19T06:29:44.927Z,95281.05
2018-09-19T06:32:13.456Z,95279.92
2018-09-19T06:34:41.924Z,95270.69
2018-09-19T06:37:11.793Z,95272.75
2018-09-19T06:39:40.219Z,95273.00
2018-09-19T06:42:08.674Z,95272.53
2018-09-19T06:44:37.262Z,95267.32
2018-09-19T06:47:05.769Z,95272.38
2018-09-19T06:49:34.173Z,95281.44
2018-09-19T06:52:02.629Z,95278.16
2018-09-19T06:54:31.003Z,95289.37
2018-09-19T06:56:59.473Z,95285.00
2018-09-19T06:59:27.869Z,95282.75
2018-09-19T07:01:56.223Z,95287.00
2018-09-19T07:04:24.631Z,95285.47
2018-09-19T07:06:53.067Z,95282.66
2018-09-19T07:09:21.497Z,95277.68
2018-09-19T07:11:49.888Z,95280.34
2018-09-19T07:14:18.236Z,95278.19
2018-09-19T07:16:46.575Z,95280.22
2018-09-19T07:19:15.116Z,95278.13
2018-09-19T07:21:43.548Z,95278.76
2018-09-19T07:24:11.986Z,95273.34
2018-09-19T07:26:40.488Z,95277.98
2018-09-19T07:29:08.899Z,95270.01
2018-09-19T07:31:37.297Z,95275.01
2018-09-19T07:34:06.302Z,95277.73
2018-09-19T07:36:34.675Z,95268.52
2018-09-19T07:39:03.203Z,95262.78
2018-09-19T07:41:31.561Z,95272.59
2018-09-19T07:44:00.107Z,95265.94
2018-09-19T07:46:28.619Z,95263.27
2018-09-19T07:48:57.024Z,95267.20
2018-09-19T07:51:25.303Z,95267.32
2018-09-19T07:53:53.642Z,95278.13
2018-09-19T07:56:22.021Z,95274.66
2018-09-19T07:58:50.495Z,95280.02
2018-09-19T08:01:19.168Z,95287.86
2018-09-19T08:03:47.512Z,95282.24
2018-09-19T08:06:16.040Z,95275.27
2018-09-19T08:08:44.382Z,95284.63
2018-09-19T08:11:12.847Z,95282.59
2018-09-19T08:13:41.237Z,95278.47
2018-09-19T08:16:09.560Z,95280.23
2018-09-19T08:18:37.904Z,95280.63
2018-09-19T08:21:06.301Z,95280.22
2018-09-19T08:23:34.673Z,95289.80
2018-09-19T08:26:03.171Z,95282.15
2018-09-19T08:28:31.537Z,95278.10
2018-09-19T08:31:00.046Z,95283.46
2018-09-19T08:33:28.484Z,95282.23
2018-09-19T08:35:56.980Z,95274.42
2018-09-19T08:38:25.467Z,95281.66
2018-09-19T08:40:54.959Z,95278.97
2018-09-19T08:43:23.396Z,95288.16
2018-09-19T08:45:52.055Z,95287.63
2018-09-19T08:48:20.580Z,95294.14
2018-09-19T08:50:48.962Z,95280.95
2018-09-19T08:53:17.566Z,95279.65
2018-09-19T08:55:45.951Z,95280.84
2018-09-19T08:58:14.392Z,95276.45
2018-09-19T09:00:42.834Z,95280.23
2018-09-19T09:03:11.252Z,95282.28
2018-09-19T09:05:39.787Z,95282.31
2018-09-19T09:08:08.446Z,95291.34
2018-09-19T09:10:36.936Z,95286.16
2018-09-19T09:13:05.373Z,95291.15
2018-09-19T09:15:33.934Z,95300.34
2018-09-19T09:18:02.348Z,95301.23
2018-09-19T09:20:30.798Z,95298.08
2018-09-19T09:22:59.188Z,95304.16
2018-09-19T09:25:27.663Z,95303.59
2018-09-19T09:27:56.095Z,95297.13
2018-09-19T09:30:24.472Z,95295.17
2018-09-19T09:32:52.932Z,95288.84
2018-09-19T09:35:21.481Z,95298.23
2018-09-19T09:37:49.914Z,95297.33
2018-09-19T09:40:18.467Z,95304.75
2018-09-19T09:42:46.780Z,95295.09
2018-09-19T09:45:15.182Z,95292.70
2018-09-19T09:47:43.577Z,95293.80
2018-09-19T09:50:12.275Z,95296.91
2018-09-19T09:52:40.618Z,95297.03
2018-09-19T09:55:09.035Z,95298.89
2018-09-19T09:57:37.385Z,95304.64
2018-09-19T10:00:05.969Z,95302.27
2018-09-19T10:02:34.329Z,95294.77
2018-09-19T10:05:02.821Z,95295.76
2018-09-19T10:07:31.230Z,95300.91
2018-09-19T10:09:59.670Z,95289.29
2018-09-19T10:12:27.956Z,95281.39
2018-09-19T10:14:56.424Z,95284.02
2018-09-19T10:17:24.789Z,95283.22
2018-09-19T10:19:53.212Z,95281.31
2018-09-19T10:22:21.576Z,95283.39
2018-09-19T10:24:49.943Z,95279.60
2018-09-19T10:27:18.284Z,95282.13
2018-09-19T10:29:46.716Z,95280.98
2018-09-19T10:32:15.125Z,95282.00
2018-09-19T10:34:43.452Z,95281.13
2018-09-19T10:37:11.854Z,95282.20
2018-09-19T10:39:40.121Z,95277.13
2018-09-19T10:42:08.736Z,95275.20
2018-09-19T10:44:37.100Z,95270.25
2018-09-19T10:47:05.394Z,95274.90
2018-09-19T10:49:33.816Z,95272.18
2018-09-19T10:52:02.143Z,95266.71
2018-09-19T10:54:30.474Z,95269.16
2018-09-19T10:56:58.829Z,95272.50
2018-09-19T10:59:27.083Z,95263.53
2018-09-19T11:01:55.415Z,95265.27
2018-09-19T11:04:23.816Z,95268.95
2018-09-19T11:06:52.160Z,95258.81
2018-09-19T11:09:20.500Z,95266.95
2018-09-19T11:11:48.821Z,95268.23
2018-09-19T11:14:17.121Z,95265.27
2018-09-19T11:16:48.484Z,95269.14
2018-09-19T11:19:16.789Z,95263.16
2018-09-19T11:21:45.103Z,95264.73
2018-09-19T11:24:13.843Z,95265.73
2018-09-19T11:26:42.249Z,95264.27
2018-09-19T11:29:10.747Z,95269.13
2018-09-19T11:31:39.808Z,95266.64
2018-09-19T11:34:08.463Z,95270.63
2018-09-19T11:36:36.866Z,95272.41
2018-09-19T11:39:09.362Z,95267.76
2018-09-19T11:41:37.704Z,95272.30
2018-09-19T11:44:06.164Z,95263.34
2018-09-19T11:46:34.520Z,95264.03
2018-09-19T11:49:02.901Z,95266.22
2018-09-19T11:51:31.349Z,95263.32
2018-09-19T11:53:59.683Z,95262.83
2018-09-19T11:56:28.081Z,95256.25
2018-09-19T11:58:56.452Z,95254.54
2018-09-19T12:01:25.291Z,95256.83
2018-09-19T12:03:53.791Z,95253.90
2018-09-19T12:06:22.369Z,95250.47
2018-09-19T12:08:50.856Z,95254.56
2018-09-19T12:11:19.299Z,95252.69
2018-09-19T12:13:47.940Z,95247.55
2018-09-19T12:16:16.389Z,95247.55
2018-09-19T12:18:44.889Z,95232.95
2018-09-19T12:21:13.509Z,95238.53
2018-09-19T12:23:42.144Z,95226.27
2018-09-19T12:26:10.701Z,95234.54
2018-09-19T12:28:39.119Z,95229.81
2018-09-19T12:31:08.420Z,95234.30
2018-09-19T12:33:36.851Z,95234.48
2018-09-19T12:36:05.263Z,95231.67
2018-09-19T12:38:33.692Z,95220.32
2018-09-19T12:41:02.141Z,95225.50
2018-09-19T12:43:30.634Z,95232.76
2018-09-19T12:45:59.230Z,95231.34
2018-09-19T12:48:27.644Z,95228.20
2018-09-19T12:50:56.087Z,95223.41
2018-09-19T12:53:25.153Z,95213.83
2018-09-19T12:55:54.373Z,95214.97
2018-09-19T12:58:22.917Z,95228.84
2018-09-19T13:00:51.780Z,95231.31
2018-09-19T13:03:20.414Z,95241.19
2018-09-19T13:05:48.862Z,95234.89
2018-09-19T13:08:17.923Z,95236.48
2018-09-19T13:10:46.408Z,95238.83
2018-09-19T13:13:15.668Z,95240.70
2018-09-19T13:15:44.032Z,95237.31
2018-09-19T13:18:12.428Z,95237.58
2018-09-19T13:20:40.918Z,95240.33
2018-09-19T13:23:09.348Z,95240.43
2018-09-19T13:25:37.797Z,95237.68
2018-09-19T13:28:06.230Z,95240.39
2018-09-19T13:30:34.670Z,95237.59
2018-09-19T13:33:03.148Z,95240.64
2018-09-19T13:35:31.544Z,95232.08
2018-09-19T13:38:00.072Z,95244.50
2018-09-19T13:40:28.545Z,95240.25
2018-09-19T13:42:56.956Z,95241.80
2018-09-19T13:45:25.347Z,95242.22
2018-09-19T13:47:53.845Z,95234.50
2018-09-19T13:51:32.955Z,95237.96
2018-09-19T13:54:01.425Z,95236.39
2018-09-19T13:56:29.876Z,95234.02
2018-09-19T13:58:58.388Z,95241.59
2018-09-19T14:01:26.786Z,95239.70
2018-09-19T14:03:55.301Z,95237.27
2018-09-19T14:06:23.769Z,95244.36
2018-09-19T14:08:52.301Z,95243.08
2018-09-19T14:11:20.663Z,95240.33
2018-09-19T14:13:49.051Z,95241.00
2018-09-19T14:16:17.397Z,95236.10
2018-09-19T14:18:46.012Z,95234.66
2018-09-19T14:21:14.451Z,95226.02
2018-09-19T14:23:42.923Z,95224.66
2018-09-19T14:26:11.579Z,95223.61
2018-09-19T14:28:39.932Z,95225.72
2018-09-19T14:31:08.264Z,95221.56
2018-09-19T14:33:36.648Z,95219.52
2018-09-19T14:36:05.132Z,95218.87
2018-09-19T14:38:33.512Z,95221.90
2018-09-19T14:41:01.884Z,95213.24
2018-09-19T14:43:30.363Z,95208.98
2018-09-19T14:45:58.733Z,95207.62
2018-09-19T14:48:27.109Z,95209.06
2018-09-19T14:50:55.405Z,95196.02
2018-09-19T14:53:23.720Z,95192.03
2018-09-19T14:55:52.023Z,95190.45
2018-09-19T14:58:20.414Z,95180.37
2018-09-19T15:00:48.775Z,95188.48
2018-09-19T15:03:17.119Z,95179.13
2018-09-19T15:05:45.588Z,95175.45
2018-09-19T15:08:15.002Z,95172.48
2018-09-19T15:10:43.409Z,95162.77
2018-09-19T15:13:11.746Z,95160.75
2018-09-19T15:15:40.116Z,95162.94
2018-09-19T15:18:08.819Z,95154.95
2018-09-19T15:20:37.053Z,95151.02
2018-09-19T15:23:05.411Z,95155.28
2018-09-19T15:25:33.808Z,95162.40
2018-09-19T15:28:02.187Z,95157.78
2018-09-19T15:30:30.540Z,95166.97
2018-09-19T15:32:58.890Z,95172.23
2018-09-19T15:35:27.202Z,95176.37
2018-09-19T15:37:55.848Z,95173.19
2018-09-19T15:40:24.251Z,95177.36
2018-09-19T15:42:52.560Z,95174.00
2018-09-19T15:45:22.255Z,95166.80
2018-09-19T15:47:52.629Z,95170.41
2018-09-19T15:50:20.924Z,95174.00
2018-09-19T15:52:49.293Z,95175.93
2018-09-19T15:55:17.763Z,95178.70
2018-09-19T15:57:46.236Z,95182.18
2018-09-19T16:00:15.049Z,95176.94
2018-09-19T16:02:43.391Z,95178.38
2018-09-19T16:05:11.891Z,95178.75
2018-09-19T16:07:40.268Z,95180.31
2018-09-19T16:10:08.677Z,95179.47
2018-09-19T16:12:37.247Z,95180.86
2018-09-19T16:15:05.607Z,95187.00
2018-09-19T16:17:33.908Z,95189.95
2018-09-19T16:20:02.236Z,95190.66
2018-09-19T16:22:30.583Z,95186.48
2018-09-19T16:24:58.973Z,95188.00
2018-09-19T16:27:27.364Z,95187.51
2018-09-19T16:29:55.676Z,95187.44
2018-09-19T16:32:24.005Z,95188.95
2018-09-19T16:34:52.389Z,95188.16
2018-09-19T16:37:20.727Z,95189.25
2018-09-19T16:39:49.054Z,95187.57
2018-09-19T16:42:17.363Z,95191.69
2018-09-19T16:44:45.634Z,95191.69
2018-09-19T16:47:13.916Z,95191.17
2018-09-19T16:49:42.199Z,95196.26
2018-09-19T16:52:10.515Z,95196.64
2018-09-19T16:54:38.838Z,95189.80
2018-09-19T16:57:07.133Z,95192.86
2018-09-19T16:59:35.599Z,95192.50
2018-09-19T17:02:04.020Z,95184.44
2018-09-19T17:04:32.319Z,95187.16
2018-09-19T17:07:00.631Z,95183.84
2018-09-19T17:09:29.012Z,95186.46
2018-09-19T17:11:57.400Z,95193.89
2018-09-19T17:14:25.688Z,95190.14
2018-09-19T17:16:53.997Z,95188.67
2018-09-19T17:19:22.363Z,95192.59
2018-09-19T17:21:50.647Z,95193.03
2018-09-19T17:24:18.968Z,95194.56
2018-09-19T17:26:47.276Z,95194.71
2018-09-19T17:29:15.883Z,95196.52
2018-09-19T17:31:44.203Z,95197.36
2018-09-19T17:34:12.531Z,95205.00
2018-09-19T17:36:41.029Z,95202.16
2018-09-19T17:39:10.951Z,95207.45
2018-09-19T17:41:39.300Z,95207.17
2018-09-19T17:44:07.799Z,95205.89
2018-09-19T17:46:36.414Z,95209.66
2018-09-19T17:49:04.920Z,95210.06
2018-09-19T17:51:33.267Z,95208.38
2018-09-19T17:54:01.624Z,95209.00
2018-09-19T17:56:29.968Z,95210.52
2018-09-19T17:58:58.364Z,95215.45
2018-09-19T18:01:26.743Z,95221.52
2018-09-19T18:03:55.140Z,95220.07
2018-09-19T18:06:23.559Z,95222.08
2018-09-19T18:08:52.157Z,95224.02
2018-09-19T18:11:20.677Z,95224.63
2018-09-19T18:13:49.233Z,95231.33
2018-09-19T18:16:17.705Z,95228.36
2018-09-19T18:18:46.182Z,95233.15
2018-09-19T18:21:14.615Z,95238.00
2018-09-19T18:23:43.032Z,95239.73
2018-09-19T18:26:11.561Z,95236.35
2018-09-19T18:28:40.201Z,95243.36
2018-09-19T18:31:09.201Z,95240.64
2018-09-19T18:33:37.973Z,95241.58
2018-09-19T18:36:06.844Z,95242.75
2018-09-19T18:38:35.499Z,95246.22
2018-09-19T18:41:04.126Z,95251.61
2018-09-19T18:43:32.619Z,95254.50
2018-09-19T18:46:01.090Z,95254.38
2018-09-19T18:48:30.285Z,95253.86
2018-09-19T18:50:58.808Z,95259.56
2018-09-19T18:53:27.191Z,95267.55
2018-09-19T18:55:55.600Z,95266.22
2018-09-19T18:58:24.051Z,95261.35
2018-09-19T19:00:52.520Z,95271.34
2018-09-19T19:03:21.018Z,95259.77
2018-09-19T19:05:49.520Z,95266.08
2018-09-19T19:08:18.951Z,95260.71
2018-09-19T19:10:47.451Z,95264.24
2018-09-19T19:13:16.027Z,95268.34
2018-09-19T19:15:44.663Z,95263.74
2018-09-19T19:18:13.211Z,95265.20
2018-09-19T19:20:42.635Z,95268.36
2018-09-19T19:23:11.103Z,95271.19
2018-09-19T19:25:39.663Z,95270.97
2018-09-19T19:28:08.205Z,95270.84
2018-09-19T19:30:36.868Z,95277.72
2018-09-19T19:33:05.168Z,95268.44
2018-09-19T19:35:33.594Z,95268.06
2018-09-19T19:38:02.124Z,95276.14
2018-09-19T19:40:30.535Z,95281.56
2018-09-19T19:42:59.241Z,95278.42
2018-09-19T19:45:27.809Z,95280.56
2018-09-19T19:47:56.532Z,95283.99
2018-09-19T19:50:25.011Z,95289.72
2018-09-19T19:52:53.491Z,95291.84
2018-09-19T19:55:22.051Z,95289.69
2018-09-19T19:57:50.630Z,95293.15
2018-09-19T20:00:19.035Z,95293.98
2018-09-19T20:02:47.508Z,95291.13
2018-09-19T20:05:15.952Z,95299.95
2018-09-19T20:07:44.713Z,95295.53
2018-09-19T20:10:13.306Z,95304.81
2018-09-19T20:12:41.784Z,95309.99
2018-09-19T20:15:10.244Z,95311.58
2018-09-19T20:17:39.324Z,95309.84
2018-09-19T20:20:07.706Z,95310.41
2018-09-19T20:22:36.133Z,95310.22
2018-09-19T20:25:04.709Z,95318.12
2018-09-19T20:27:33.099Z,95316.10
2018-09-19T20:30:01.544Z,95321.20
2018-09-19T20:32:29.929Z,95322.81
2018-09-19T20:34:58.337Z,95327.84
2018-09-19T20:37:26.744Z,95333.58
2018-09-19T20:39:55.235Z,95325.65
2018-09-19T20:42:23.760Z,95325.65
2018-09-19T20:44:52.212Z,95330.48
2018-09-19T20:47:20.678Z,95321.73
2018-09-19T20:49:49.115Z,95330.00
2018-09-19T20:52:17.526Z,95325.39
2018-09-19T20:54:45.923Z,95331.83
2018-09-19T20:57:14.397Z,95336.66
2018-09-19T20:59:42.882Z,95339.56
2018-09-19T21:02:11.289Z,95338.16
2018-09-19T21:04:39.785Z,95344.11
2018-09-19T21:07:08.153Z,95345.05
2018-09-19T21:09:36.603Z,95343.44
2018-09-19T21:12:05.008Z,95347.73
2018-09-19T21:14:33.473Z,95346.88
2018-09-19T21:17:01.867Z,95341.91
2018-09-19T21:19:30.286Z,95347.92
2018-09-19T21:21:59.021Z,95343.70
2018-09-19T21:24:27.335Z,95345.95
2018-09-19T21:26:55.839Z,95351.72
2018-09-19T21:29:25.046Z,95353.13
2018-09-19T21:31:53.533Z,95355.73
2018-09-19T21:34:22.013Z,95357.02
2018-09-19T21:36:50.523Z,95355.88
2018-09-19T21:39:18.999Z,95358.18
2018-09-19T21:41:47.636Z,95362.42
2018-09-19T21:44:16.062Z,95366.11
2018-09-19T21:46:44.475Z,95369.44
2018-09-19T21:49:12.891Z,95371.95
2018-09-19T21:51:41.435Z,95365.66
2018-09-19T21:54:09.940Z,95367.72
2018-09-19T21:56:38.736Z,95368.45
2018-09-19T21:59:07.085Z,95371.31
2018-09-19T22:01:41.367Z,95368.69
2018-09-19T22:04:09.723Z,95373.91
2018-09-19T22:06:38.546Z,95373.13
2018-09-19T22:09:09.305Z,95372.10
2018-09-19T22:11:37.923Z,95370.50
2018-09-19T22:14:06.344Z,95376.54
2018-09-19T22:16:34.692Z,95374.06
2018-09-19T22:19:03.017Z,95376.12
2018-09-19T22:21:31.753Z,95385.16
2018-09-19T22:24:00.149Z,95378.12
2018-09-19T22:26:28.656Z,95375.48
2018-09-19T22:28:57.071Z,95376.12
2018-09-19T22:31:25.748Z,95376.42
2018-09-19T22:33:54.106Z,95377.39
2018-09-19T22:36:22.479Z,95375.89
2018-09-19T22:38:50.914Z,95372.88
2018-09-19T22:41:19.861Z,95378.89
2018-09-19T22:43:48.343Z,95383.67
2018-09-19T22:46:16.761Z,95380.63
2018-09-19T22:48:45.340Z,95381.77
2018-09-19T22:51:13.839Z,95381.13
2018-09-19T22:53:42.674Z,95376.59
2018-09-19T22:56:11.138Z,95377.53
2018-09-19T22:58:39.596Z,95379.10
2018-09-19T23:01:08.044Z,95374.41
2018-09-19T23:03:36.532Z,95374.61
2018-09-19T23:06:04.899Z,95374.64
2018-09-19T23:08:33.314Z,95375.23
2018-09-19T23:11:01.711Z,95373.84
2018-09-19T23:13:30.120Z,95372.02
2018-09-19T23:15:58.537Z,95372.33
2018-09-19T23:18:26.966Z,95368.16
2018-09-19T23:20:55.376Z,95364.41
2018-09-19T23:23:23.776Z,95364.05
2018-09-19T23:25:52.223Z,95360.53
2018-09-19T23:28:20.673Z,95364.16
2018-09-19T23:30:49.041Z,95357.13
2018-09-19T23:33:17.577Z,95359.33
2018-09-19T23:35:46.080Z,95357.36
2018-09-19T23:38:14.688Z,95358.67
2018-09-19T23:40:43.214Z,95354.97
2018-09-19T23:43:11.705Z,95357.28
2018-09-19T23:45:40.393Z,95355.99
2018-09-19T23:48:08.868Z,95357.91
2018-09-19T23:50:37.312Z,95357.52
2018-09-19T23:53:05.644Z,95349.55
2018-09-19T23:55:33.992Z,95353.33
2018-09-19T23:58:02.434Z,95352.98
